sensor_id;sensor_type;location;lat;lon;timestamp;temperature;humidity
60848;DHT22;46681;47.696;9.140;2022-09-11T00:01:37;17.80;61.10
60848;DHT22;46681;47.696;9.140;2022-09-11T00:04:05;17.80;61.20
60848;DHT22;46681;47.696;9.140;2022-09-11T00:06:33;17.80;61.10
60848;DHT22;46681;47.696;9.140;2022-09-11T00:09:03;17.80;61.10
60848;DHT22;46681;47.696;9.140;2022-09-11T00:11:33;17.80;61.20
60848;DHT22;46681;47.696;9.140;2022-09-11T00:13:59;17.80;61.30
60848;DHT22;46681;47.696;9.140;2022-09-11T00:18:51;17.80;61.30
60848;DHT22;46681;47.696;9.140;2022-09-11T00:21:19;17.80;61.30
60848;DHT22;46681;47.696;9.140;2022-09-11T00:23:46;17.80;61.40
60848;DHT22;46681;47.696;9.140;2022-09-11T00:26:21;17.80;61.40
60848;DHT22;46681;47.696;9.140;2022-09-11T00:28:47;17.80;61.30
60848;DHT22;46681;47.696;9.140;2022-09-11T00:31:19;17.80;61.30
60848;DHT22;46681;47.696;9.140;2022-09-11T00:33:51;17.80;61.40
60848;DHT22;46681;47.696;9.140;2022-09-11T00:36:21;17.70;61.40
60848;DHT22;46681;47.696;9.140;2022-09-11T00:38:48;17.80;61.40
60848;DHT22;46681;47.696;9.140;2022-09-11T00:44:07;17.70;61.10
60848;DHT22;46681;47.696;9.140;2022-09-11T00:46:57;17.70;61.00
60848;DHT22;46681;47.696;9.140;2022-09-11T00:52:08;17.70;61.30
60848;DHT22;46681;47.696;9.140;2022-09-11T00:54:46;17.70;61.20
60848;DHT22;46681;47.696;9.140;2022-09-11T00:57:21;17.70;61.30
60848;DHT22;46681;47.696;9.140;2022-09-11T00:59:50;17.70;61.20
60848;DHT22;46681;47.696;9.140;2022-09-11T01:02:20;17.70;61.20
60848;DHT22;46681;47.696;9.140;2022-09-11T01:04:47;17.70;61.30
60848;DHT22;46681;47.696;9.140;2022-09-11T01:07:14;17.60;61.30
60848;DHT22;46681;47.696;9.140;2022-09-11T01:09:43;17.60;61.10
60848;DHT22;46681;47.696;9.140;2022-09-11T01:12:22;17.60;61.30
60848;DHT22;46681;47.696;9.140;2022-09-11T01:15:06;17.60;61.20
60848;DHT22;46681;47.696;9.140;2022-09-11T01:17:52;17.60;61.30
60848;DHT22;46681;47.696;9.140;2022-09-11T01:28:50;17.60;61.30
60848;DHT22;46681;47.696;9.140;2022-09-11T01:31:23;17.60;61.30
60848;DHT22;46681;47.696;9.140;2022-09-11T01:34:20;17.60;61.40
60848;DHT22;46681;47.696;9.140;2022-09-11T01:37:06;17.60;61.30
60848;DHT22;46681;47.696;9.140;2022-09-11T01:39:46;17.60;61.40
60848;DHT22;46681;47.696;9.140;2022-09-11T01:42:18;17.60;61.40
60848;DHT22;46681;47.696;9.140;2022-09-11T01:44:54;17.50;61.40
60848;DHT22;46681;47.696;9.140;2022-09-11T01:47:20;17.60;61.50
60848;DHT22;46681;47.696;9.140;2022-09-11T01:49:52;17.60;61.60
60848;DHT22;46681;47.696;9.140;2022-09-11T01:52:23;17.60;61.60
60848;DHT22;46681;47.696;9.140;2022-09-11T01:55:01;17.60;61.40
60848;DHT22;46681;47.696;9.140;2022-09-11T02:00:22;17.50;61.30
60848;DHT22;46681;47.696;9.140;2022-09-11T02:02:58;17.50;61.50
60848;DHT22;46681;47.696;9.140;2022-09-11T02:05:39;17.50;61.30
60848;DHT22;46681;47.696;9.140;2022-09-11T02:08:36;17.50;61.50
60848;DHT22;46681;47.696;9.140;2022-09-11T02:11:08;17.50;61.40
60848;DHT22;46681;47.696;9.140;2022-09-11T02:19:14;17.50;61.30
60848;DHT22;46681;47.696;9.140;2022-09-11T02:21:49;17.50;61.50
60848;DHT22;46681;47.696;9.140;2022-09-11T02:24:15;17.50;61.40
60848;DHT22;46681;47.696;9.140;2022-09-11T02:27:10;17.50;61.50
60848;DHT22;46681;47.696;9.140;2022-09-11T02:29:38;17.50;61.50
60848;DHT22;46681;47.696;9.140;2022-09-11T02:32:05;17.50;61.50
60848;DHT22;46681;47.696;9.140;2022-09-11T02:34:37;17.50;61.50
60848;DHT22;46681;47.696;9.140;2022-09-11T02:37:11;17.50;61.50
60848;DHT22;46681;47.696;9.140;2022-09-11T02:42:18;17.40;61.50
60848;DHT22;46681;47.696;9.140;2022-09-11T02:45:25;17.50;61.50
60848;DHT22;46681;47.696;9.140;2022-09-11T02:48:01;17.50;61.50
60848;DHT22;46681;47.696;9.140;2022-09-11T02:50:43;17.50;61.60
60848;DHT22;46681;47.696;9.140;2022-09-11T02:59:00;17.40;61.50
60848;DHT22;46681;47.696;9.140;2022-09-11T03:01:30;17.40;61.40
60848;DHT22;46681;47.696;9.140;2022-09-11T03:04:09;17.40;61.50
60848;DHT22;46681;47.696;9.140;2022-09-11T03:06:36;17.40;61.40
60848;DHT22;46681;47.696;9.140;2022-09-11T03:09:05;17.40;61.50
60848;DHT22;46681;47.696;9.140;2022-09-11T03:11:30;17.40;61.60
60848;DHT22;46681;47.696;9.140;2022-09-11T03:13:56;17.40;61.60
60848;DHT22;46681;47.696;9.140;2022-09-11T03:16:23;17.40;61.60
60848;DHT22;46681;47.696;9.140;2022-09-11T03:18:48;17.40;61.60
60848;DHT22;46681;47.696;9.140;2022-09-11T03:21:14;17.40;61.70
60848;DHT22;46681;47.696;9.140;2022-09-11T03:23:41;17.40;61.70
60848;DHT22;46681;47.696;9.140;2022-09-11T03:26:08;17.40;61.60
60848;DHT22;46681;47.696;9.140;2022-09-11T03:28:33;17.40;61.70
60848;DHT22;46681;47.696;9.140;2022-09-11T03:30:59;17.40;61.70
60848;DHT22;46681;47.696;9.140;2022-09-11T03:33:24;17.40;61.70
60848;DHT22;46681;47.696;9.140;2022-09-11T03:35:52;17.40;61.70
60848;DHT22;46681;47.696;9.140;2022-09-11T03:38:22;17.40;61.70
60848;DHT22;46681;47.696;9.140;2022-09-11T03:40:49;17.40;61.90
60848;DHT22;46681;47.696;9.140;2022-09-11T03:43:18;17.40;61.80
60848;DHT22;46681;47.696;9.140;2022-09-11T03:45:49;17.40;61.80
60848;DHT22;46681;47.696;9.140;2022-09-11T03:48:22;17.40;61.80
60848;DHT22;46681;47.696;9.140;2022-09-11T03:50:54;17.40;61.90
60848;DHT22;46681;47.696;9.140;2022-09-11T03:53:19;17.40;62.00
60848;DHT22;46681;47.696;9.140;2022-09-11T03:55:47;17.40;61.90
60848;DHT22;46681;47.696;9.140;2022-09-11T03:58:13;17.40;61.80
60848;DHT22;46681;47.696;9.140;2022-09-11T04:00:45;17.40;61.80
60848;DHT22;46681;47.696;9.140;2022-09-11T04:03:12;17.40;61.90
60848;DHT22;46681;47.696;9.140;2022-09-11T04:05:38;17.40;62.00
60848;DHT22;46681;47.696;9.140;2022-09-11T04:08:10;17.40;61.90
60848;DHT22;46681;47.696;9.140;2022-09-11T04:10:39;17.40;61.90
60848;DHT22;46681;47.696;9.140;2022-09-11T04:13:05;17.40;62.00
60848;DHT22;46681;47.696;9.140;2022-09-11T04:15:31;17.40;62.10
60848;DHT22;46681;47.696;9.140;2022-09-11T04:17:57;17.40;62.00
60848;DHT22;46681;47.696;9.140;2022-09-11T04:20:24;17.40;62.10
60848;DHT22;46681;47.696;9.140;2022-09-11T04:22:50;17.40;62.00
60848;DHT22;46681;47.696;9.140;2022-09-11T04:25:20;17.40;62.10
60848;DHT22;46681;47.696;9.140;2022-09-11T04:27:48;17.40;61.90
60848;DHT22;46681;47.696;9.140;2022-09-11T04:30:17;17.40;62.10
60848;DHT22;46681;47.696;9.140;2022-09-11T04:32:44;17.40;62.10
60848;DHT22;46681;47.696;9.140;2022-09-11T04:35:11;17.40;62.10
60848;DHT22;46681;47.696;9.140;2022-09-11T04:37:38;17.40;62.10
60848;DHT22;46681;47.696;9.140;2022-09-11T04:40:08;17.40;62.10
60848;DHT22;46681;47.696;9.140;2022-09-11T04:42:33;17.40;62.20
60848;DHT22;46681;47.696;9.140;2022-09-11T04:45:04;17.30;62.60
60848;DHT22;46681;47.696;9.140;2022-09-11T04:47:31;17.40;62.10
60848;DHT22;46681;47.696;9.140;2022-09-11T04:50:03;17.30;62.10
60848;DHT22;46681;47.696;9.140;2022-09-11T04:52:33;17.40;62.00
60848;DHT22;46681;47.696;9.140;2022-09-11T04:55:06;17.40;62.00
60848;DHT22;46681;47.696;9.140;2022-09-11T04:57:32;17.30;62.00
60848;DHT22;46681;47.696;9.140;2022-09-11T05:00:01;17.40;62.00
60848;DHT22;46681;47.696;9.140;2022-09-11T05:02:35;17.40;62.10
60848;DHT22;46681;47.696;9.140;2022-09-11T05:05:01;17.30;62.00
60848;DHT22;46681;47.696;9.140;2022-09-11T05:07:29;17.30;62.60
60848;DHT22;46681;47.696;9.140;2022-09-11T05:09:54;17.30;62.10
60848;DHT22;46681;47.696;9.140;2022-09-11T05:12:22;17.30;62.10
60848;DHT22;46681;47.696;9.140;2022-09-11T05:14:50;17.30;62.10
60848;DHT22;46681;47.696;9.140;2022-09-11T05:17:20;17.30;62.10
60848;DHT22;46681;47.696;9.140;2022-09-11T05:19:45;17.30;62.10
60848;DHT22;46681;47.696;9.140;2022-09-11T05:22:11;17.30;62.20
60848;DHT22;46681;47.696;9.140;2022-09-11T05:24:39;17.30;62.20
60848;DHT22;46681;47.696;9.140;2022-09-11T05:27:08;17.30;62.20
60848;DHT22;46681;47.696;9.140;2022-09-11T05:29:40;17.30;62.20
60848;DHT22;46681;47.696;9.140;2022-09-11T05:32:07;17.30;62.20
60848;DHT22;46681;47.696;9.140;2022-09-11T05:34:38;17.30;62.20
60848;DHT22;46681;47.696;9.140;2022-09-11T05:37:10;17.30;62.30
60848;DHT22;46681;47.696;9.140;2022-09-11T05:39:37;17.30;62.20
60848;DHT22;46681;47.696;9.140;2022-09-11T05:42:05;17.30;62.30
60848;DHT22;46681;47.696;9.140;2022-09-11T05:44:33;17.30;62.30
60848;DHT22;46681;47.696;9.140;2022-09-11T05:47:01;17.30;62.20
60848;DHT22;46681;47.696;9.140;2022-09-11T05:49:31;17.30;62.20
60848;DHT22;46681;47.696;9.140;2022-09-11T05:52:02;17.30;62.20
60848;DHT22;46681;47.696;9.140;2022-09-11T05:54:29;17.30;62.20
60848;DHT22;46681;47.696;9.140;2022-09-11T05:56:55;17.40;62.30
60848;DHT22;46681;47.696;9.140;2022-09-11T05:59:23;17.40;62.30
60848;DHT22;46681;47.696;9.140;2022-09-11T06:01:49;17.40;62.30
60848;DHT22;46681;47.696;9.140;2022-09-11T06:04:20;17.40;62.20
60848;DHT22;46681;47.696;9.140;2022-09-11T06:06:49;17.40;62.20
60848;DHT22;46681;47.696;9.140;2022-09-11T06:09:23;17.40;62.30
60848;DHT22;46681;47.696;9.140;2022-09-11T06:11:50;17.40;62.20
60848;DHT22;46681;47.696;9.140;2022-09-11T06:14:19;17.40;62.20
60848;DHT22;46681;47.696;9.140;2022-09-11T06:16:47;17.40;62.30
60848;DHT22;46681;47.696;9.140;2022-09-11T06:19:13;17.40;62.20
60848;DHT22;46681;47.696;9.140;2022-09-11T06:21:40;17.40;62.20
60848;DHT22;46681;47.696;9.140;2022-09-11T06:24:08;17.40;62.20
60848;DHT22;46681;47.696;9.140;2022-09-11T06:26:41;17.40;62.20
60848;DHT22;46681;47.696;9.140;2022-09-11T06:29:07;17.40;62.30
60848;DHT22;46681;47.696;9.140;2022-09-11T06:31:39;17.40;62.20
60848;DHT22;46681;47.696;9.140;2022-09-11T06:34:06;17.40;62.10
60848;DHT22;46681;47.696;9.140;2022-09-11T06:36:42;17.40;62.20
60848;DHT22;46681;47.696;9.140;2022-09-11T06:39:12;17.50;62.30
60848;DHT22;46681;47.696;9.140;2022-09-11T06:41:47;17.40;62.70
60848;DHT22;46681;47.696;9.140;2022-09-11T06:44:12;17.50;62.20
60848;DHT22;46681;47.696;9.140;2022-09-11T06:46:55;17.50;62.20
60848;DHT22;46681;47.696;9.140;2022-09-11T06:49:33;17.50;62.20
60848;DHT22;46681;47.696;9.140;2022-09-11T06:52:06;17.50;62.10
60848;DHT22;46681;47.696;9.140;2022-09-11T06:54:34;17.50;62.10
60848;DHT22;46681;47.696;9.140;2022-09-11T06:57:02;17.60;62.10
60848;DHT22;46681;47.696;9.140;2022-09-11T06:59:30;17.60;62.10
60848;DHT22;46681;47.696;9.140;2022-09-11T07:01:59;17.60;62.10
60848;DHT22;46681;47.696;9.140;2022-09-11T07:04:34;17.70;62.10
60848;DHT22;46681;47.696;9.140;2022-09-11T07:07:05;17.70;62.00
60848;DHT22;46681;47.696;9.140;2022-09-11T07:10:01;17.70;62.00
60848;DHT22;46681;47.696;9.140;2022-09-11T07:12:38;17.80;62.00
60848;DHT22;46681;47.696;9.140;2022-09-11T07:15:10;17.80;62.00
60848;DHT22;46681;47.696;9.140;2022-09-11T07:17:43;17.90;62.10
60848;DHT22;46681;47.696;9.140;2022-09-11T07:20:11;17.90;61.90
60848;DHT22;46681;47.696;9.140;2022-09-11T07:22:40;18.00;61.90
60848;DHT22;46681;47.696;9.140;2022-09-11T07:25:13;18.00;62.70
60848;DHT22;46681;47.696;9.140;2022-09-11T07:27:58;18.10;62.30
60848;DHT22;46681;47.696;9.140;2022-09-11T07:30:28;18.20;62.10
60848;DHT22;46681;47.696;9.140;2022-09-11T07:32:53;18.20;62.30
60848;DHT22;46681;47.696;9.140;2022-09-11T07:35:39;18.30;62.20
60848;DHT22;46681;47.696;9.140;2022-09-11T07:38:15;18.30;61.70
60848;DHT22;46681;47.696;9.140;2022-09-11T07:41:10;18.30;61.50
60848;DHT22;46681;47.696;9.140;2022-09-11T07:44:07;18.30;61.50
60848;DHT22;46681;47.696;9.140;2022-09-11T07:46:42;18.30;61.40
60848;DHT22;46681;47.696;9.140;2022-09-11T07:49:13;18.40;61.40
60848;DHT22;46681;47.696;9.140;2022-09-11T07:51:47;18.40;61.40
60848;DHT22;46681;47.696;9.140;2022-09-11T07:54:30;18.40;61.80
60848;DHT22;46681;47.696;9.140;2022-09-11T07:56:58;18.40;61.30
60848;DHT22;46681;47.696;9.140;2022-09-11T07:59:32;18.50;61.20
60848;DHT22;46681;47.696;9.140;2022-09-11T08:02:00;18.50;61.10
60848;DHT22;46681;47.696;9.140;2022-09-11T08:04:37;18.50;61.10
60848;DHT22;46681;47.696;9.140;2022-09-11T08:07:05;18.60;61.20
60848;DHT22;46681;47.696;9.140;2022-09-11T08:09:39;18.60;60.90
60848;DHT22;46681;47.696;9.140;2022-09-11T08:12:31;18.70;61.20
60848;DHT22;46681;47.696;9.140;2022-09-11T08:18:00;18.80;61.70
60848;DHT22;46681;47.696;9.140;2022-09-11T08:20:53;18.80;62.10
60848;DHT22;46681;47.696;9.140;2022-09-11T08:23:22;18.90;61.70
60848;DHT22;46681;47.696;9.140;2022-09-11T08:25:51;18.90;61.70
60848;DHT22;46681;47.696;9.140;2022-09-11T08:28:23;19.00;61.60
60848;DHT22;46681;47.696;9.140;2022-09-11T08:30:57;19.00;61.30
60848;DHT22;46681;47.696;9.140;2022-09-11T08:33:25;19.00;61.20
60848;DHT22;46681;47.696;9.140;2022-09-11T08:36:21;18.90;61.40
60848;DHT22;46681;47.696;9.140;2022-09-11T08:39:12;19.00;61.30
60848;DHT22;46681;47.696;9.140;2022-09-11T08:41:52;19.00;61.30
60848;DHT22;46681;47.696;9.140;2022-09-11T08:45:05;19.00;61.10
60848;DHT22;46681;47.696;9.140;2022-09-11T08:48:06;19.10;61.20
60848;DHT22;46681;47.696;9.140;2022-09-11T08:50:58;19.10;61.00
60848;DHT22;46681;47.696;9.140;2022-09-11T08:53:34;19.10;60.90
60848;DHT22;46681;47.696;9.140;2022-09-11T08:56:28;19.20;61.00
60848;DHT22;46681;47.696;9.140;2022-09-11T09:17:27;19.90;59.40
60848;DHT22;46681;47.696;9.140;2022-09-11T09:20:16;20.00;59.10
60848;DHT22;46681;47.696;9.140;2022-09-11T09:23:17;20.20;59.00
60848;DHT22;46681;47.696;9.140;2022-09-11T09:25:58;20.30;58.50
60848;DHT22;46681;47.696;9.140;2022-09-11T09:34:54;20.60;58.00
60848;DHT22;46681;47.696;9.140;2022-09-11T09:37:28;20.60;57.90
60848;DHT22;46681;47.696;9.140;2022-09-11T09:40:13;20.60;57.50
60848;DHT22;46681;47.696;9.140;2022-09-11T09:43:20;20.60;57.30
60848;DHT22;46681;47.696;9.140;2022-09-11T09:46:09;20.60;57.10
60848;DHT22;46681;47.696;9.140;2022-09-11T09:52:15;20.60;57.20
60848;DHT22;46681;47.696;9.140;2022-09-11T09:55:14;20.60;57.00
60848;DHT22;46681;47.696;9.140;2022-09-11T09:57:54;20.60;57.00
60848;DHT22;46681;47.696;9.140;2022-09-11T10:00:35;20.60;56.90
60848;DHT22;46681;47.696;9.140;2022-09-11T10:03:31;20.60;56.60
60848;DHT22;46681;47.696;9.140;2022-09-11T10:05:58;20.60;56.60
60848;DHT22;46681;47.696;9.140;2022-09-11T10:08:46;20.50;56.60
60848;DHT22;46681;47.696;9.140;2022-09-11T10:11:30;20.60;56.70
60848;DHT22;46681;47.696;9.140;2022-09-11T10:14:07;20.60;56.50
60848;DHT22;46681;47.696;9.140;2022-09-11T10:17:02;20.60;56.50
60848;DHT22;46681;47.696;9.140;2022-09-11T10:19:50;20.80;56.60
60848;DHT22;46681;47.696;9.140;2022-09-11T10:22:38;21.00;56.20
60848;DHT22;46681;47.696;9.140;2022-09-11T10:25:33;21.20;55.50
60848;DHT22;46681;47.696;9.140;2022-09-11T10:28:24;21.50;55.00
60848;DHT22;46681;47.696;9.140;2022-09-11T10:34:02;21.90;53.90
60848;DHT22;46681;47.696;9.140;2022-09-11T10:46:35;22.20;53.40
60848;DHT22;46681;47.696;9.140;2022-09-11T10:49:23;22.70;52.90
60848;DHT22;46681;47.696;9.140;2022-09-11T11:07:06;25.00;48.00
60848;DHT22;46681;47.696;9.140;2022-09-11T11:13:17;25.50;47.10
60848;DHT22;46681;47.696;9.140;2022-09-11T11:22:25;26.30;45.80
60848;DHT22;46681;47.696;9.140;2022-09-11T11:37:39;27.30;43.90
60848;DHT22;46681;47.696;9.140;2022-09-11T11:43:57;27.70;43.60
60848;DHT22;46681;47.696;9.140;2022-09-11T12:07:50;28.40;42.50
60848;DHT22;46681;47.696;9.140;2022-09-11T12:20:12;28.80;42.10
60848;DHT22;46681;47.696;9.140;2022-09-11T12:41:40;28.10;42.60
60848;DHT22;46681;47.696;9.140;2022-09-11T12:47:49;27.50;43.60
60848;DHT22;46681;47.696;9.140;2022-09-11T12:50:54;27.30;44.10
60848;DHT22;46681;47.696;9.140;2022-09-11T12:54:03;27.40;44.10
60848;DHT22;46681;47.696;9.140;2022-09-11T13:19:39;26.30;45.70
60848;DHT22;46681;47.696;9.140;2022-09-11T13:47:26;28.30;42.60
60848;DHT22;46681;47.696;9.140;2022-09-11T13:50:13;28.60;42.50
60848;DHT22;46681;47.696;9.140;2022-09-11T13:53:00;28.80;42.00
60848;DHT22;46681;47.696;9.140;2022-09-11T13:55:54;28.80;41.70
60848;DHT22;46681;47.696;9.140;2022-09-11T13:58:59;28.50;41.90
60848;DHT22;46681;47.696;9.140;2022-09-11T14:05:38;27.90;43.00
60848;DHT22;46681;47.696;9.140;2022-09-11T14:08:47;27.60;43.40
60848;DHT22;46681;47.696;9.140;2022-09-11T14:11:20;27.70;44.00
60848;DHT22;46681;47.696;9.140;2022-09-11T14:20:38;27.70;43.70
60848;DHT22;46681;47.696;9.140;2022-09-11T14:23:27;27.60;43.90
60848;DHT22;46681;47.696;9.140;2022-09-11T14:29:26;27.50;43.90
60848;DHT22;46681;47.696;9.140;2022-09-11T14:32:29;27.30;44.20
60848;DHT22;46681;47.696;9.140;2022-09-11T14:35:58;27.40;44.40
60848;DHT22;46681;47.696;9.140;2022-09-11T14:38:40;27.60;44.10
60848;DHT22;46681;47.696;9.140;2022-09-11T14:41:14;27.60;44.00
60848;DHT22;46681;47.696;9.140;2022-09-11T14:43:50;27.60;43.70
60848;DHT22;46681;47.696;9.140;2022-09-11T14:52:51;27.40;43.70
60848;DHT22;46681;47.696;9.140;2022-09-11T14:55:35;27.20;44.00
60848;DHT22;46681;47.696;9.140;2022-09-11T15:00:58;26.90;44.50
60848;DHT22;46681;47.696;9.140;2022-09-11T15:03:32;26.70;44.80
60848;DHT22;46681;47.696;9.140;2022-09-11T15:06:33;26.50;44.80
60848;DHT22;46681;47.696;9.140;2022-09-11T15:09:15;26.40;45.10
60848;DHT22;46681;47.696;9.140;2022-09-11T15:12:12;26.20;45.50
60848;DHT22;46681;47.696;9.140;2022-09-11T15:15:15;26.00;46.20
60848;DHT22;46681;47.696;9.140;2022-09-11T15:18:09;25.80;46.50
60848;DHT22;46681;47.696;9.140;2022-09-11T15:21:17;25.70;46.80
60848;DHT22;46681;47.696;9.140;2022-09-11T15:26:51;25.60;47.50
60848;DHT22;46681;47.696;9.140;2022-09-11T15:32:50;25.40;46.10
60848;DHT22;46681;47.696;9.140;2022-09-11T15:35:28;25.30;46.60
60848;DHT22;46681;47.696;9.140;2022-09-11T15:41:05;25.20;46.60
60848;DHT22;46681;47.696;9.140;2022-09-11T15:44:07;25.20;46.70
60848;DHT22;46681;47.696;9.140;2022-09-11T15:47:17;25.10;46.10
60848;DHT22;46681;47.696;9.140;2022-09-11T15:49:44;25.00;47.60
60848;DHT22;46681;47.696;9.140;2022-09-11T15:52:48;25.00;46.90
60848;DHT22;46681;47.696;9.140;2022-09-11T15:55:31;24.90;46.70
60848;DHT22;46681;47.696;9.140;2022-09-11T15:57:59;24.90;45.50
60848;DHT22;46681;47.696;9.140;2022-09-11T16:00:40;24.80;45.60
60848;DHT22;46681;47.696;9.140;2022-09-11T16:03:28;24.70;46.10
60848;DHT22;46681;47.696;9.140;2022-09-11T16:06:05;24.70;46.10
60848;DHT22;46681;47.696;9.140;2022-09-11T16:08:34;24.70;46.00
60848;DHT22;46681;47.696;9.140;2022-09-11T16:11:17;24.60;46.00
60848;DHT22;46681;47.696;9.140;2022-09-11T16:13:57;24.60;46.50
60848;DHT22;46681;47.696;9.140;2022-09-11T16:16:35;24.50;46.60
60848;DHT22;46681;47.696;9.140;2022-09-11T16:19:30;24.40;46.40
60848;DHT22;46681;47.696;9.140;2022-09-11T16:22:27;24.40;46.40
60848;DHT22;46681;47.696;9.140;2022-09-11T16:25:00;24.40;47.00
60848;DHT22;46681;47.696;9.140;2022-09-11T16:30:26;24.30;46.50
60848;DHT22;46681;47.696;9.140;2022-09-11T16:32:55;24.20;46.80
60848;DHT22;46681;47.696;9.140;2022-09-11T16:35:30;24.10;47.10
60848;DHT22;46681;47.696;9.140;2022-09-11T16:38:27;24.10;47.00
60848;DHT22;46681;47.696;9.140;2022-09-11T16:44:36;24.00;47.50
60848;DHT22;46681;47.696;9.140;2022-09-11T16:47:28;23.90;47.50
60848;DHT22;46681;47.696;9.140;2022-09-11T16:50:00;23.90;47.70
60848;DHT22;46681;47.696;9.140;2022-09-11T16:52:43;23.80;47.90
60848;DHT22;46681;47.696;9.140;2022-09-11T16:55:21;23.80;48.10
60848;DHT22;46681;47.696;9.140;2022-09-11T16:58:00;23.70;48.10
60848;DHT22;46681;47.696;9.140;2022-09-11T17:00:31;23.70;48.50
60848;DHT22;46681;47.696;9.140;2022-09-11T17:02:57;23.60;48.70
60848;DHT22;46681;47.696;9.140;2022-09-11T17:06:07;23.60;48.90
60848;DHT22;46681;47.696;9.140;2022-09-11T17:08:26;23.50;49.10
60848;DHT22;46681;47.696;9.140;2022-09-11T17:11:12;23.40;49.20
60848;DHT22;46681;47.696;9.140;2022-09-11T17:13:50;23.40;49.50
60848;DHT22;46681;47.696;9.140;2022-09-11T17:16:29;23.30;49.70
60848;DHT22;46681;47.696;9.140;2022-09-11T17:19:03;23.20;49.70
60848;DHT22;46681;47.696;9.140;2022-09-11T17:21:34;23.20;49.80
60848;DHT22;46681;47.696;9.140;2022-09-11T17:24:09;23.10;50.10
60848;DHT22;46681;47.696;9.140;2022-09-11T17:26:41;23.00;50.20
60848;DHT22;46681;47.696;9.140;2022-09-11T17:29:13;23.00;50.50
60848;DHT22;46681;47.696;9.140;2022-09-11T17:31:42;23.00;50.90
60848;DHT22;46681;47.696;9.140;2022-09-11T17:34:17;22.90;50.90
60848;DHT22;46681;47.696;9.140;2022-09-11T17:36:53;22.80;51.10
60848;DHT22;46681;47.696;9.140;2022-09-11T17:39:26;22.80;51.40
60848;DHT22;46681;47.696;9.140;2022-09-11T17:41:52;22.70;51.50
60848;DHT22;46681;47.696;9.140;2022-09-11T17:44:19;22.70;51.70
60848;DHT22;46681;47.696;9.140;2022-09-11T17:46:45;22.60;51.80
60848;DHT22;46681;47.696;9.140;2022-09-11T17:49:18;22.50;52.10
60848;DHT22;46681;47.696;9.140;2022-09-11T17:51:51;22.40;52.10
60848;DHT22;46681;47.696;9.140;2022-09-11T17:54:21;22.40;52.50
60848;DHT22;46681;47.696;9.140;2022-09-11T17:56:50;22.30;52.50
60848;DHT22;46681;47.696;9.140;2022-09-11T17:59:16;22.20;53.20
60848;DHT22;46681;47.696;9.140;2022-09-11T18:01:45;22.10;52.80
60848;DHT22;46681;47.696;9.140;2022-09-11T18:04:14;22.00;53.10
60848;DHT22;46681;47.696;9.140;2022-09-11T18:06:54;22.00;53.20
60848;DHT22;46681;47.696;9.140;2022-09-11T18:09:29;21.90;53.10
60848;DHT22;46681;47.696;9.140;2022-09-11T18:12:05;21.80;53.30
60848;DHT22;46681;47.696;9.140;2022-09-11T18:14:41;21.70;53.40
60848;DHT22;46681;47.696;9.140;2022-09-11T18:17:13;21.70;53.60
60848;DHT22;46681;47.696;9.140;2022-09-11T18:19:41;21.60;53.70
60848;DHT22;46681;47.696;9.140;2022-09-11T18:22:12;21.50;53.80
60848;DHT22;46681;47.696;9.140;2022-09-11T18:24:45;21.40;53.90
60848;DHT22;46681;47.696;9.140;2022-09-11T18:27:15;21.30;53.90
60848;DHT22;46681;47.696;9.140;2022-09-11T18:29:48;21.30;54.00
60848;DHT22;46681;47.696;9.140;2022-09-11T18:32:16;21.20;53.80
60848;DHT22;46681;47.696;9.140;2022-09-11T18:34:42;21.20;54.00
60848;DHT22;46681;47.696;9.140;2022-09-11T18:37:08;21.10;54.20
60848;DHT22;46681;47.696;9.140;2022-09-11T18:39:35;21.00;54.30
60848;DHT22;46681;47.696;9.140;2022-09-11T18:42:07;21.00;54.40
60848;DHT22;46681;47.696;9.140;2022-09-11T18:44:41;20.90;54.50
60848;DHT22;46681;47.696;9.140;2022-09-11T18:47:13;20.90;54.70
60848;DHT22;46681;47.696;9.140;2022-09-11T18:49:40;20.80;54.80
60848;DHT22;46681;47.696;9.140;2022-09-11T18:52:16;20.70;54.80
60848;DHT22;46681;47.696;9.140;2022-09-11T18:54:44;20.70;54.90
60848;DHT22;46681;47.696;9.140;2022-09-11T18:57:11;20.60;55.00
60848;DHT22;46681;47.696;9.140;2022-09-11T18:59:39;20.50;55.10
60848;DHT22;46681;47.696;9.140;2022-09-11T19:02:06;20.50;55.30
60848;DHT22;46681;47.696;9.140;2022-09-11T19:04:31;20.40;55.30
60848;DHT22;46681;47.696;9.140;2022-09-11T19:07:05;20.40;55.50
60848;DHT22;46681;47.696;9.140;2022-09-11T19:09:36;20.30;55.70
60848;DHT22;46681;47.696;9.140;2022-09-11T19:12:05;20.20;55.70
60848;DHT22;46681;47.696;9.140;2022-09-11T19:14:33;20.20;55.80
60848;DHT22;46681;47.696;9.140;2022-09-11T19:17:00;20.10;55.80
60848;DHT22;46681;47.696;9.140;2022-09-11T19:19:30;20.10;56.00
60848;DHT22;46681;47.696;9.140;2022-09-11T19:21:56;20.00;56.10
60848;DHT22;46681;47.696;9.140;2022-09-11T19:24:21;20.00;56.10
60848;DHT22;46681;47.696;9.140;2022-09-11T19:26:49;19.90;56.60
60848;DHT22;46681;47.696;9.140;2022-09-11T19:29:19;19.90;56.70
60848;DHT22;46681;47.696;9.140;2022-09-11T19:31:45;19.90;56.90
60848;DHT22;46681;47.696;9.140;2022-09-11T19:34:11;19.90;56.60
60848;DHT22;46681;47.696;9.140;2022-09-11T19:36:48;19.80;56.70
60848;DHT22;46681;47.696;9.140;2022-09-11T19:39:20;19.80;56.70
60848;DHT22;46681;47.696;9.140;2022-09-11T19:41:53;19.70;56.40
60848;DHT22;46681;47.696;9.140;2022-09-11T19:44:21;19.70;56.60
60848;DHT22;46681;47.696;9.140;2022-09-11T19:46:48;19.70;56.60
60848;DHT22;46681;47.696;9.140;2022-09-11T19:49:17;19.70;56.60
60848;DHT22;46681;47.696;9.140;2022-09-11T19:51:51;19.60;56.60
60848;DHT22;46681;47.696;9.140;2022-09-11T19:54:17;19.60;56.70
60848;DHT22;46681;47.696;9.140;2022-09-11T19:56:44;19.50;56.50
60848;DHT22;46681;47.696;9.140;2022-09-11T19:59:24;19.50;56.80
60848;DHT22;46681;47.696;9.140;2022-09-11T20:02:05;19.40;56.70
60848;DHT22;46681;47.696;9.140;2022-09-11T20:04:33;19.40;56.70
60848;DHT22;46681;47.696;9.140;2022-09-11T20:06:58;19.40;57.10
60848;DHT22;46681;47.696;9.140;2022-09-11T20:09:24;19.40;57.10
60848;DHT22;46681;47.696;9.140;2022-09-11T20:11:49;19.30;56.80
60848;DHT22;46681;47.696;9.140;2022-09-11T20:14:15;19.30;56.80
60848;DHT22;46681;47.696;9.140;2022-09-11T20:16:41;19.30;57.10
60848;DHT22;46681;47.696;9.140;2022-09-11T20:19:09;19.20;56.90
60848;DHT22;46681;47.696;9.140;2022-09-11T20:21:35;19.20;57.20
60848;DHT22;46681;47.696;9.140;2022-09-11T20:24:04;19.20;57.30
60848;DHT22;46681;47.696;9.140;2022-09-11T20:26:37;19.20;57.30
60848;DHT22;46681;47.696;9.140;2022-09-11T20:29:07;19.10;57.20
60848;DHT22;46681;47.696;9.140;2022-09-11T20:31:44;19.00;57.30
60848;DHT22;46681;47.696;9.140;2022-09-11T20:34:10;19.00;57.40
60848;DHT22;46681;47.696;9.140;2022-09-11T20:36:41;19.00;57.30
60848;DHT22;46681;47.696;9.140;2022-09-11T20:39:15;19.00;57.50